sensor_id;sensor_type;location;lat;lon;timestamp;temperature;humidity
60234;DHT22;49514;43.538;-5.708;2024-03-23T00:52:14;14.00;99.90
60234;DHT22;49514;43.538;-5.708;2024-03-23T00:54:41;14.00;99.90
60234;DHT22;49514;43.538;-5.708;2024-03-23T00:57:07;14.10;99.90
60234;DHT22;49514;43.538;-5.708;2024-03-23T00:59:34;14.10;99.90
60234;DHT22;49514;43.538;-5.708;2024-03-23T01:02:01;14.10;99.90
60234;DHT22;49514;43.538;-5.708;2024-03-23T01:04:27;14.10;99.90
60234;DHT22;49514;43.538;-5.708;2024-03-23T01:06:54;14.10;99.90
60234;DHT22;49514;43.538;-5.708;2024-03-23T01:09:20;14.10;99.90
60234;DHT22;49514;43.538;-5.708;2024-03-23T01:11:49;14.10;99.90
60234;DHT22;49514;43.538;-5.708;2024-03-23T01:14:15;14.10;99.90
60234;DHT22;49514;43.538;-5.708;2024-03-23T01:16:42;14.10;99.90
60234;DHT22;49514;43.538;-5.708;2024-03-23T01:19:09;14.10;99.90
60234;DHT22;49514;43.538;-5.708;2024-03-23T01:21:35;14.10;99.90
60234;DHT22;49514;43.538;-5.708;2024-03-23T01:24:02;14.10;99.90
60234;DHT22;49514;43.538;-5.708;2024-03-23T01:26:28;14.10;99.90
60234;DHT22;49514;43.538;-5.708;2024-03-23T01:28:55;14.10;99.90
60234;DHT22;49514;43.538;-5.708;2024-03-23T01:31:22;14.10;99.90
60234;DHT22;49514;43.538;-5.708;2024-03-23T01:33:48;14.10;99.90
60234;DHT22;49514;43.538;-5.708;2024-03-23T01:36:15;14.00;99.90
60234;DHT22;49514;43.538;-5.708;2024-03-23T01:38:42;14.00;99.90
60234;DHT22;49514;43.538;-5.708;2024-03-23T01:41:08;14.00;99.90
60234;DHT22;49514;43.538;-5.708;2024-03-23T01:43:35;14.00;99.90
60234;DHT22;49514;43.538;-5.708;2024-03-23T01:46:01;14.00;99.90
60234;DHT22;49514;43.538;-5.708;2024-03-23T01:48:28;13.90;99.90
60234;DHT22;49514;43.538;-5.708;2024-03-23T01:50:55;14.00;99.90
60234;DHT22;49514;43.538;-5.708;2024-03-23T01:53:22;14.00;99.90
60234;DHT22;49514;43.538;-5.708;2024-03-23T01:55:50;14.00;99.90
60234;DHT22;49514;43.538;-5.708;2024-03-23T01:58:17;14.00;99.90
60234;DHT22;49514;43.538;-5.708;2024-03-23T02:00:44;14.00;99.90
60234;DHT22;49514;43.538;-5.708;2024-03-23T02:03:27;14.00;99.90
60234;DHT22;49514;43.538;-5.708;2024-03-23T02:05:54;14.00;99.90
60234;DHT22;49514;43.538;-5.708;2024-03-23T02:08:23;14.00;99.90
60234;DHT22;49514;43.538;-5.708;2024-03-23T02:10:51;13.90;99.90
60234;DHT22;49514;43.538;-5.708;2024-03-23T02:13:18;13.90;99.90
60234;DHT22;49514;43.538;-5.708;2024-03-23T02:15:45;13.90;99.90
60234;DHT22;49514;43.538;-5.708;2024-03-23T02:18:12;13.90;99.90
60234;DHT22;49514;43.538;-5.708;2024-03-23T02:20:39;13.90;99.90
60234;DHT22;49514;43.538;-5.708;2024-03-23T02:23:06;13.90;99.90
60234;DHT22;49514;43.538;-5.708;2024-03-23T02:25:39;13.90;99.90
60234;DHT22;49514;43.538;-5.708;2024-03-23T02:28:05;14.00;99.90
60234;DHT22;49514;43.538;-5.708;2024-03-23T02:30:32;13.90;99.90
60234;DHT22;49514;43.538;-5.708;2024-03-23T02:32:59;13.90;99.90
60234;DHT22;49514;43.538;-5.708;2024-03-23T02:35:25;13.90;99.90
60234;DHT22;49514;43.538;-5.708;2024-03-23T02:37:52;13.90;99.90
60234;DHT22;49514;43.538;-5.708;2024-03-23T02:40:20;13.90;99.90
60234;DHT22;49514;43.538;-5.708;2024-03-23T02:42:47;13.90;99.90
60234;DHT22;49514;43.538;-5.708;2024-03-23T02:45:13;13.90;99.90
60234;DHT22;49514;43.538;-5.708;2024-03-23T02:47:40;14.00;99.90
60234;DHT22;49514;43.538;-5.708;2024-03-23T02:50:07;14.00;99.90
60234;DHT22;49514;43.538;-5.708;2024-03-23T02:52:35;13.90;99.90
60234;DHT22;49514;43.538;-5.708;2024-03-23T02:55:03;13.90;99.90
60234;DHT22;49514;43.538;-5.708;2024-03-23T02:57:30;14.00;99.90
60234;DHT22;49514;43.538;-5.708;2024-03-23T02:59:57;13.90;99.90
60234;DHT22;49514;43.538;-5.708;2024-03-23T03:02:23;13.90;99.90
60234;DHT22;49514;43.538;-5.708;2024-03-23T03:04:50;13.90;99.90
60234;DHT22;49514;43.538;-5.708;2024-03-23T03:07:17;13.90;99.90
60234;DHT22;49514;43.538;-5.708;2024-03-23T03:09:43;13.90;99.90
60234;DHT22;49514;43.538;-5.708;2024-03-23T03:12:10;13.90;99.90
60234;DHT22;49514;43.538;-5.708;2024-03-23T03:14:36;13.80;99.90
60234;DHT22;49514;43.538;-5.708;2024-03-23T03:17:03;13.80;99.90
60234;DHT22;49514;43.538;-5.708;2024-03-23T03:19:30;13.70;99.90
60234;DHT22;49514;43.538;-5.708;2024-03-23T03:21:57;13.70;99.90
60234;DHT22;49514;43.538;-5.708;2024-03-23T03:24:24;13.60;99.90
60234;DHT22;49514;43.538;-5.708;2024-03-23T03:26:51;13.50;99.90
60234;DHT22;49514;43.538;-5.708;2024-03-23T03:29:18;13.40;99.90
60234;DHT22;49514;43.538;-5.708;2024-03-23T03:31:44;13.30;99.90
60234;DHT22;49514;43.538;-5.708;2024-03-23T03:34:11;13.20;99.90
60234;DHT22;49514;43.538;-5.708;2024-03-23T03:36:38;13.20;99.90
60234;DHT22;49514;43.538;-5.708;2024-03-23T03:39:04;13.20;99.90
60234;DHT22;49514;43.538;-5.708;2024-03-23T03:41:31;13.10;99.90
60234;DHT22;49514;43.538;-5.708;2024-03-23T03:43:58;13.10;99.90
60234;DHT22;49514;43.538;-5.708;2024-03-23T03:46:28;13.00;99.90
60234;DHT22;49514;43.538;-5.708;2024-03-23T03:48:55;13.00;99.90
60234;DHT22;49514;43.538;-5.708;2024-03-23T03:51:22;13.00;99.90
60234;DHT22;49514;43.538;-5.708;2024-03-23T03:53:48;13.00;99.90
60234;DHT22;49514;43.538;-5.708;2024-03-23T03:56:15;13.00;99.90
60234;DHT22;49514;43.538;-5.708;2024-03-23T03:58:41;13.00;99.90
60234;DHT22;49514;43.538;-5.708;2024-03-23T04:01:08;12.90;99.90
60234;DHT22;49514;43.538;-5.708;2024-03-23T04:03:35;12.90;99.90
60234;DHT22;49514;43.538;-5.708;2024-03-23T04:06:01;12.90;99.90
60234;DHT22;49514;43.538;-5.708;2024-03-23T04:08:29;12.90;99.90
60234;DHT22;49514;43.538;-5.708;2024-03-23T04:10:56;12.90;99.90
60234;DHT22;49514;43.538;-5.708;2024-03-23T04:13:22;12.90;99.90
60234;DHT22;49514;43.538;-5.708;2024-03-23T04:15:49;12.90;99.90
60234;DHT22;49514;43.538;-5.708;2024-03-23T04:18:20;12.90;99.90
60234;DHT22;49514;43.538;-5.708;2024-03-23T04:20:47;12.90;99.90
60234;DHT22;49514;43.538;-5.708;2024-03-23T04:23:13;12.90;99.90
60234;DHT22;49514;43.538;-5.708;2024-03-23T04:25:40;12.90;99.90
60234;DHT22;49514;43.538;-5.708;2024-03-23T04:28:07;12.90;99.90
60234;DHT22;49514;43.538;-5.708;2024-03-23T04:30:33;12.80;99.90
60234;DHT22;49514;43.538;-5.708;2024-03-23T04:33:00;12.80;99.90
60234;DHT22;49514;43.538;-5.708;2024-03-23T04:35:27;12.80;99.90
60234;DHT22;49514;43.538;-5.708;2024-03-23T04:37:54;12.70;99.90
60234;DHT22;49514;43.538;-5.708;2024-03-23T04:40:22;12.80;99.90
60234;DHT22;49514;43.538;-5.708;2024-03-23T04:42:48;12.70;99.90
60234;DHT22;49514;43.538;-5.708;2024-03-23T04:45:15;12.70;99.90
60234;DHT22;49514;43.538;-5.708;2024-03-23T04:47:42;12.60;99.90
60234;DHT22;49514;43.538;-5.708;2024-03-23T04:50:09;12.60;99.90
60234;DHT22;49514;43.538;-5.708;2024-03-23T04:52:39;12.70;99.90
60234;DHT22;49514;43.538;-5.708;2024-03-23T04:55:06;12.70;99.90
60234;DHT22;49514;43.538;-5.708;2024-03-23T04:57:33;12.70;99.90
60234;DHT22;49514;43.538;-5.708;2024-03-23T05:00:00;12.70;99.90
60234;DHT22;49514;43.538;-5.708;2024-03-23T05:02:28;12.70;99.90
60234;DHT22;49514;43.538;-5.708;2024-03-23T05:04:55;12.70;99.90
60234;DHT22;49514;43.538;-5.708;2024-03-23T05:07:21;12.70;99.90
60234;DHT22;49514;43.538;-5.708;2024-03-23T05:09:48;12.70;99.90
60234;DHT22;49514;43.538;-5.708;2024-03-23T05:12:15;12.70;99.90
60234;DHT22;49514;43.538;-5.708;2024-03-23T05:14:42;12.70;99.90
60234;DHT22;49514;43.538;-5.708;2024-03-23T05:17:08;12.70;99.90
60234;DHT22;49514;43.538;-5.708;2024-03-23T05:19:35;12.70;99.90
60234;DHT22;49514;43.538;-5.708;2024-03-23T05:22:01;12.70;99.90
60234;DHT22;49514;43.538;-5.708;2024-03-23T05:24:28;12.70;99.90
60234;DHT22;49514;43.538;-5.708;2024-03-23T05:26:55;12.70;99.90
60234;DHT22;49514;43.538;-5.708;2024-03-23T05:29:22;12.70;99.90
60234;DHT22;49514;43.538;-5.708;2024-03-23T05:31:51;12.70;99.90
60234;DHT22;49514;43.538;-5.708;2024-03-23T05:34:18;12.70;99.90
60234;DHT22;49514;43.538;-5.708;2024-03-23T05:36:45;12.70;99.90
60234;DHT22;49514;43.538;-5.708;2024-03-23T05:39:11;12.70;99.90
60234;DHT22;49514;43.538;-5.708;2024-03-23T05:41:38;12.70;99.90
60234;DHT22;49514;43.538;-5.708;2024-03-23T05:44:06;12.70;99.90
60234;DHT22;49514;43.538;-5.708;2024-03-23T05:46:33;12.70;99.90
60234;DHT22;49514;43.538;-5.708;2024-03-23T05:49:01;12.70;99.90
60234;DHT22;49514;43.538;-5.708;2024-03-23T05:51:28;12.70;99.90
60234;DHT22;49514;43.538;-5.708;2024-03-23T05:53:55;12.70;99.90
60234;DHT22;49514;43.538;-5.708;2024-03-23T05:56:22;12.70;99.90
60234;DHT22;49514;43.538;-5.708;2024-03-23T05:58:48;12.70;99.90
60234;DHT22;49514;43.538;-5.708;2024-03-23T06:01:15;12.70;99.90
60234;DHT22;49514;43.538;-5.708;2024-03-23T06:03:41;12.70;99.90
60234;DHT22;49514;43.538;-5.708;2024-03-23T06:06:13;12.80;99.90
60234;DHT22;49514;43.538;-5.708;2024-03-23T06:08:39;12.70;99.90
60234;DHT22;49514;43.538;-5.708;2024-03-23T06:11:07;12.80;99.90
60234;DHT22;49514;43.538;-5.708;2024-03-23T06:13:33;12.80;99.90
60234;DHT22;49514;43.538;-5.708;2024-03-23T06:16:01;12.80;99.90
60234;DHT22;49514;43.538;-5.708;2024-03-23T06:18:28;12.80;99.90
60234;DHT22;49514;43.538;-5.708;2024-03-23T06:20:54;12.80;99.90
60234;DHT22;49514;43.538;-5.708;2024-03-23T06:23:21;12.80;99.90
60234;DHT22;49514;43.538;-5.708;2024-03-23T06:25:48;12.80;99.90
60234;DHT22;49514;43.538;-5.708;2024-03-23T06:28:15;12.80;99.90
60234;DHT22;49514;43.538;-5.708;2024-03-23T06:30:41;12.80;99.90
60234;DHT22;49514;43.538;-5.708;2024-03-23T06:33:08;12.80;99.90
60234;DHT22;49514;43.538;-5.708;2024-03-23T06:35:35;12.80;99.90
60234;DHT22;49514;43.538;-5.708;2024-03-23T06:38:01;12.80;99.90
60234;DHT22;49514;43.538;-5.708;2024-03-23T06:40:28;12.70;99.90
60234;DHT22;49514;43.538;-5.708;2024-03-23T06:42:54;12.70;99.90
60234;DHT22;49514;43.538;-5.708;2024-03-23T06:45:21;12.70;99.90
60234;DHT22;49514;43.538;-5.708;2024-03-23T06:47:50;12.70;99.90
60234;DHT22;49514;43.538;-5.708;2024-03-23T06:50:18;12.80;99.90
60234;DHT22;49514;43.538;-5.708;2024-03-23T06:52:45;12.70;99.90
60234;DHT22;49514;43.538;-5.708;2024-03-23T06:55:12;12.80;99.90
60234;DHT22;49514;43.538;-5.708;2024-03-23T06:57:38;12.70;99.90
60234;DHT22;49514;43.538;-5.708;2024-03-23T07:00:05;12.80;99.90
60234;DHT22;49514;43.538;-5.708;2024-03-23T07:02:36;12.80;99.90
60234;DHT22;49514;43.538;-5.708;2024-03-23T07:05:03;12.90;99.90
60234;DHT22;49514;43.538;-5.708;2024-03-23T07:07:30;12.90;99.90
60234;DHT22;49514;43.538;-5.708;2024-03-23T07:09:56;12.90;99.90
60234;DHT22;49514;43.538;-5.708;2024-03-23T07:12:23;12.90;99.90
60234;DHT22;49514;43.538;-5.708;2024-03-23T07:14:50;13.00;99.90
60234;DHT22;49514;43.538;-5.708;2024-03-23T07:17:17;13.00;99.90
60234;DHT22;49514;43.538;-5.708;2024-03-23T07:19:46;13.00;99.90
60234;DHT22;49514;43.538;-5.708;2024-03-23T07:22:12;13.10;99.90
60234;DHT22;49514;43.538;-5.708;2024-03-23T07:24:40;13.10;99.90
60234;DHT22;49514;43.538;-5.708;2024-03-23T07:27:08;13.20;99.90
60234;DHT22;49514;43.538;-5.708;2024-03-23T07:29:36;13.20;99.90
60234;DHT22;49514;43.538;-5.708;2024-03-23T07:32:03;13.30;99.90
60234;DHT22;49514;43.538;-5.708;2024-03-23T07:34:30;13.30;99.90
60234;DHT22;49514;43.538;-5.708;2024-03-23T07:36:57;13.40;99.90
60234;DHT22;49514;43.538;-5.708;2024-03-23T07:39:23;13.40;99.90
60234;DHT22;49514;43.538;-5.708;2024-03-23T07:41:51;13.50;99.90
60234;DHT22;49514;43.538;-5.708;2024-03-23T07:44:17;13.60;99.90
60234;DHT22;49514;43.538;-5.708;2024-03-23T07:46:44;13.60;99.90
60234;DHT22;49514;43.538;-5.708;2024-03-23T07:49:11;13.70;99.90
60234;DHT22;49514;43.538;-5.708;2024-03-23T07:51:38;13.70;99.90
60234;DHT22;49514;43.538;-5.708;2024-03-23T07:54:06;13.80;99.90
60234;DHT22;49514;43.538;-5.708;2024-03-23T07:56:33;13.90;99.90
60234;DHT22;49514;43.538;-5.708;2024-03-23T07:59:00;13.90;99.90
60234;DHT22;49514;43.538;-5.708;2024-03-23T08:01:27;13.90;99.90
60234;DHT22;49514;43.538;-5.708;2024-03-23T08:03:53;14.00;99.90
60234;DHT22;49514;43.538;-5.708;2024-03-23T08:06:21;14.00;99.90
60234;DHT22;49514;43.538;-5.708;2024-03-23T08:08:57;14.10;99.90
60234;DHT22;49514;43.538;-5.708;2024-03-23T08:11:30;14.20;99.90
60234;DHT22;49514;43.538;-5.708;2024-03-23T08:13:58;14.20;99.90
60234;DHT22;49514;43.538;-5.708;2024-03-23T08:16:24;14.40;99.90
60234;DHT22;49514;43.538;-5.708;2024-03-23T08:18:51;14.40;99.90
60234;DHT22;49514;43.538;-5.708;2024-03-23T08:21:19;14.40;99.90
60234;DHT22;49514;43.538;-5.708;2024-03-23T08:23:46;14.40;99.90
60234;DHT22;49514;43.538;-5.708;2024-03-23T08:26:15;14.30;99.90
60234;DHT22;49514;43.538;-5.708;2024-03-23T08:28:42;14.40;99.90
60234;DHT22;49514;43.538;-5.708;2024-03-23T08:31:11;14.30;99.90
60234;DHT22;49514;43.538;-5.708;2024-03-23T08:33:39;14.30;99.90
60234;DHT22;49514;43.538;-5.708;2024-03-23T08:36:10;14.40;99.90
60234;DHT22;49514;43.538;-5.708;2024-03-23T08:38:40;14.40;99.90
60234;DHT22;49514;43.538;-5.708;2024-03-23T08:41:08;14.40;99.90
60234;DHT22;49514;43.538;-5.708;2024-03-23T08:43:37;14.40;99.90
60234;DHT22;49514;43.538;-5.708;2024-03-23T08:46:11;14.50;99.90
60234;DHT22;49514;43.538;-5.708;2024-03-23T08:48:41;14.60;99.90
60234;DHT22;49514;43.538;-5.708;2024-03-23T08:51:10;14.80;99.90
60234;DHT22;49514;43.538;-5.708;2024-03-23T08:53:38;14.90;99.90
60234;DHT22;49514;43.538;-5.708;2024-03-23T08:56:06;15.20;99.90
60234;DHT22;49514;43.538;-5.708;2024-03-23T08:58:34;15.20;99.90
60234;DHT22;49514;43.538;-5.708;2024-03-23T09:01:08;15.30;99.90
60234;DHT22;49514;43.538;-5.708;2024-03-23T09:03:36;15.70;99.90
60234;DHT22;49514;43.538;-5.708;2024-03-23T09:06:07;15.80;99.90
60234;DHT22;49514;43.538;-5.708;2024-03-23T09:08:35;15.80;99.90
60234;DHT22;49514;43.538;-5.708;2024-03-23T09:11:07;15.90;99.90
60234;DHT22;49514;43.538;-5.708;2024-03-23T09:13:37;15.90;99.90
60234;DHT22;49514;43.538;-5.708;2024-03-23T09:16:05;16.10;99.90
60234;DHT22;49514;43.538;-5.708;2024-03-23T09:18:34;16.10;99.90
60234;DHT22;49514;43.538;-5.708;2024-03-23T09:21:02;16.40;99.90
60234;DHT22;49514;43.538;-5.708;2024-03-23T09:23:29;16.60;99.90
60234;DHT22;49514;43.538;-5.708;2024-03-23T09:25:56;16.60;99.90
60234;DHT22;49514;43.538;-5.708;2024-03-23T09:28:23;16.70;99.90
60234;DHT22;49514;43.538;-5.708;2024-03-23T09:30:50;16.70;99.90
60234;DHT22;49514;43.538;-5.708;2024-03-23T09:33:17;16.80;99.90
60234;DHT22;49514;43.538;-5.708;2024-03-23T09:35:44;16.90;99.90
60234;DHT22;49514;43.538;-5.708;2024-03-23T09:38:11;16.80;99.90
60234;DHT22;49514;43.538;-5.708;2024-03-23T09:40:41;17.00;99.90
60234;DHT22;49514;43.538;-5.708;2024-03-23T09:43:11;16.90;99.90
60234;DHT22;49514;43.538;-5.708;2024-03-23T09:45:41;16.80;99.90
60234;DHT22;49514;43.538;-5.708;2024-03-23T09:48:09;16.90;99.90
60234;DHT22;49514;43.538;-5.708;2024-03-23T09:50:40;17.10;99.90
60234;DHT22;49514;43.538;-5.708;2024-03-23T09:53:07;17.20;99.90
60234;DHT22;49514;43.538;-5.708;2024-03-23T09:55:35;17.20;99.90
60234;DHT22;49514;43.538;-5.708;2024-03-23T09:58:02;17.20;99.90
60234;DHT22;49514;43.538;-5.708;2024-03-23T10:00:35;17.20;99.90
60234;DHT22;49514;43.538;-5.708;2024-03-23T10:03:02;17.20;99.90
60234;DHT22;49514;43.538;-5.708;2024-03-23T10:05:29;17.40;99.90
60234;DHT22;49514;43.538;-5.708;2024-03-23T10:08:18;17.50;99.90
60234;DHT22;49514;43.538;-5.708;2024-03-23T10:10:48;17.50;99.90
60234;DHT22;49514;43.538;-5.708;2024-03-23T10:13:25;17.70;99.90
60234;DHT22;49514;43.538;-5.708;2024-03-23T10:15:57;17.60;99.90
60234;DHT22;49514;43.538;-5.708;2024-03-23T10:18:27;17.80;99.90
60234;DHT22;49514;43.538;-5.708;2024-03-23T10:23:34;18.00;99.90
60234;DHT22;49514;43.538;-5.708;2024-03-23T10:26:19;18.00;99.90
60234;DHT22;49514;43.538;-5.708;2024-03-23T10:29:01;18.20;99.90
60234;DHT22;49514;43.538;-5.708;2024-03-23T10:31:30;18.50;99.90
60234;DHT22;49514;43.538;-5.708;2024-03-23T10:33:57;18.70;99.90
60234;DHT22;49514;43.538;-5.708;2024-03-23T10:36:24;18.80;99.90
60234;DHT22;49514;43.538;-5.708;2024-03-23T10:38:54;18.80;99.90
60234;DHT22;49514;43.538;-5.708;2024-03-23T10:41:21;18.80;99.90
60234;DHT22;49514;43.538;-5.708;2024-03-23T10:43:49;18.90;99.90
60234;DHT22;49514;43.538;-5.708;2024-03-23T10:46:16;18.90;99.90
60234;DHT22;49514;43.538;-5.708;2024-03-23T10:48:44;18.90;99.90
60234;DHT22;49514;43.538;-5.708;2024-03-23T10:51:11;18.90;99.90
60234;DHT22;49514;43.538;-5.708;2024-03-23T10:53:39;18.80;99.90
60234;DHT22;49514;43.538;-5.708;2024-03-23T10:56:06;18.80;99.90
60234;DHT22;49514;43.538;-5.708;2024-03-23T10:58:42;18.80;99.90
60234;DHT22;49514;43.538;-5.708;2024-03-23T11:01:13;18.80;99.90
60234;DHT22;49514;43.538;-5.708;2024-03-23T11:03:45;18.40;99.90
60234;DHT22;49514;43.538;-5.708;2024-03-23T11:06:38;18.50;99.90
60234;DHT22;49514;43.538;-5.708;2024-03-23T11:11:55;18.70;99.90
60234;DHT22;49514;43.538;-5.708;2024-03-23T11:14:22;18.80;99.90
60234;DHT22;49514;43.538;-5.708;2024-03-23T11:17:08;18.60;99.90
60234;DHT22;49514;43.538;-5.708;2024-03-23T11:19:37;18.80;99.90
60234;DHT22;49514;43.538;-5.708;2024-03-23T11:22:04;18.90;99.90
60234;DHT22;49514;43.538;-5.708;2024-03-23T11:24:32;19.20;99.90
60234;DHT22;49514;43.538;-5.708;2024-03-23T11:26:59;19.30;99.90
60234;DHT22;49514;43.538;-5.708;2024-03-23T11:29:28;19.50;99.90
60234;DHT22;49514;43.538;-5.708;2024-03-23T11:31:56;19.30;99.90
60234;DHT22;49514;43.538;-5.708;2024-03-23T11:34:23;19.10;99.90
60234;DHT22;49514;43.538;-5.708;2024-03-23T11:36:50;19.20;99.90
60234;DHT22;49514;43.538;-5.708;2024-03-23T11:39:20;19.30;99.90
60234;DHT22;49514;43.538;-5.708;2024-03-23T11:41:51;19.20;99.90
60234;DHT22;49514;43.538;-5.708;2024-03-23T11:44:19;19.30;99.90
60234;DHT22;49514;43.538;-5.708;2024-03-23T11:46:48;19.40;99.90
60234;DHT22;49514;43.538;-5.708;2024-03-23T11:49:26;19.60;99.90
60234;DHT22;49514;43.538;-5.708;2024-03-23T11:51:54;19.80;99.90
60234;DHT22;49514;43.538;-5.708;2024-03-23T11:54:25;20.00;99.90
60234;DHT22;49514;43.538;-5.708;2024-03-23T11:57:08;20.20;99.90
60234;DHT22;49514;43.538;-5.708;2024-03-23T11:59:39;20.10;99.90
60234;DHT22;49514;43.538;-5.708;2024-03-23T12:02:12;20.40;99.90
60234;DHT22;49514;43.538;-5.708;2024-03-23T12:04:41;20.40;99.90
60234;DHT22;49514;43.538;-5.708;2024-03-23T12:07:19;20.20;99.90
60234;DHT22;49514;43.538;-5.708;2024-03-23T12:09:47;20.50;99.90
60234;DHT22;49514;43.538;-5.708;2024-03-23T12:12:15;20.30;99.90
60234;DHT22;49514;43.538;-5.708;2024-03-23T12:15:00;20.10;99.90
60234;DHT22;49514;43.538;-5.708;2024-03-23T12:17:28;20.20;99.90
60234;DHT22;49514;43.538;-5.708;2024-03-23T12:19:55;19.90;99.90
60234;DHT22;49514;43.538;-5.708;2024-03-23T12:22:22;20.00;99.90
60234;DHT22;49514;43.538;-5.708;2024-03-23T12:24:49;19.90;99.90
60234;DHT22;49514;43.538;-5.708;2024-03-23T12:27:16;20.20;99.90
60234;DHT22;49514;43.538;-5.708;2024-03-23T12:29:43;20.50;99.90
60234;DHT22;49514;43.538;-5.708;2024-03-23T12:32:13;21.00;99.90
60234;DHT22;49514;43.538;-5.708;2024-03-23T12:34:40;21.40;99.90
60234;DHT22;49514;43.538;-5.708;2024-03-23T12:37:10;21.70;99.90
60234;DHT22;49514;43.538;-5.708;2024-03-23T12:39:36;21.90;99.90
60234;DHT22;49514;43.538;-5.708;2024-03-23T12:42:03;22.60;99.90
60234;DHT22;49514;43.538;-5.708;2024-03-23T12:44:30;22.70;99.90
60234;DHT22;49514;43.538;-5.708;2024-03-23T12:46:57;22.60;99.80
60234;DHT22;49514;43.538;-5.708;2024-03-23T12:49:24;22.60;99.90
60234;DHT22;49514;43.538;-5.708;2024-03-23T12:51:55;22.70;97.80
60234;DHT22;49514;43.538;-5.708;2024-03-23T12:54:22;22.80;99.90
60234;DHT22;49514;43.538;-5.708;2024-03-23T12:56:49;22.90;98.60
60234;DHT22;49514;43.538;-5.708;2024-03-23T12:59:16;23.60;98.80
60234;DHT22;49514;43.538;-5.708;2024-03-23T13:01:45;24.90;94.60
60234;DHT22;49514;43.538;-5.708;2024-03-23T13:04:12;24.30;94.50
60234;DHT22;49514;43.538;-5.708;2024-03-23T13:06:38;24.30;95.00
60234;DHT22;49514;43.538;-5.708;2024-03-23T13:09:05;24.70;95.10
60234;DHT22;49514;43.538;-5.708;2024-03-23T13:11:32;25.10;93.70
60234;DHT22;49514;43.538;-5.708;2024-03-23T13:13:59;26.20;93.00
60234;DHT22;49514;43.538;-5.708;2024-03-23T13:16:26;26.00;91.70
60234;DHT22;49514;43.538;-5.708;2024-03-23T13:18:52;25.20;89.30
60234;DHT22;49514;43.538;-5.708;2024-03-23T13:21:19;24.80;90.60
60234;DHT22;49514;43.538;-5.708;2024-03-23T13:23:48;25.10;89.10
60234;DHT22;49514;43.538;-5.708;2024-03-23T13:26:17;25.20;91.80
60234;DHT22;49514;43.538;-5.708;2024-03-23T13:28:44;25.20;90.50
60234;DHT22;49514;43.538;-5.708;2024-03-23T13:31:11;24.70;87.70
60234;DHT22;49514;43.538;-5.708;2024-03-23T13:33:38;24.20;90.00
60234;DHT22;49514;43.538;-5.708;2024-03-23T13:36:04;24.20;89.70
60234;DHT22;49514;43.538;-5.708;2024-03-23T13:38:32;24.30;90.80
60234;DHT22;49514;43.538;-5.708;2024-03-23T13:41:00;24.20;89.80
60234;DHT22;49514;43.538;-5.708;2024-03-23T13:43:27;24.60;89.90
60234;DHT22;49514;43.538;-5.708;2024-03-23T13:45:56;25.10;87.90
60234;DHT22;49514;43.538;-5.708;2024-03-23T13:48:24;25.80;87.70
60234;DHT22;49514;43.538;-5.708;2024-03-23T13:51:04;27.70;85.60
60234;DHT22;49514;43.538;-5.708;2024-03-23T13:53:31;28.40;77.40
60234;DHT22;49514;43.538;-5.708;2024-03-23T13:56:01;28.10;76.60
60234;DHT22;49514;43.538;-5.708;2024-03-23T13:58:27;28.30;77.50
60234;DHT22;49514;43.538;-5.708;2024-03-23T14:00:57;28.70;75.20
60234;DHT22;49514;43.538;-5.708;2024-03-23T14:03:24;28.10;74.10
60234;DHT22;49514;43.538;-5.708;2024-03-23T14:05:52;27.20;74.20
60234;DHT22;49514;43.538;-5.708;2024-03-23T14:08:20;26.30;73.90
60234;DHT22;49514;43.538;-5.708;2024-03-23T14:10:48;26.20;75.70
60234;DHT22;49514;43.538;-5.708;2024-03-23T14:13:14;26.20;77.00
60234;DHT22;49514;43.538;-5.708;2024-03-23T14:15:41;25.70;75.80
60234;DHT22;49514;43.538;-5.708;2024-03-23T14:18:08;25.10;76.50
60234;DHT22;49514;43.538;-5.708;2024-03-23T14:20:35;24.10;78.80
60234;DHT22;49514;43.538;-5.708;2024-03-23T14:23:02;24.50;80.50
60234;DHT22;49514;43.538;-5.708;2024-03-23T14:25:29;24.60;80.30
60234;DHT22;49514;43.538;-5.708;2024-03-23T14:27:56;24.90;78.90
60234;DHT22;49514;43.538;-5.708;2024-03-23T14:30:24;25.50;79.50
60234;DHT22;49514;43.538;-5.708;2024-03-23T14:32:51;25.50;77.90
60234;DHT22;49514;43.538;-5.708;2024-03-23T14:35:18;25.20;76.60
60234;DHT22;49514;43.538;-5.708;2024-03-23T14:37:45;24.80;76.40
60234;DHT22;49514;43.538;-5.708;2024-03-23T14:40:14;24.60;79.90
60234;DHT22;49514;43.538;-5.708;2024-03-23T14:42:40;24.70;78.80
60234;DHT22;49514;43.538;-5.708;2024-03-23T14:45:08;24.60;77.70
60234;DHT22;49514;43.538;-5.708;2024-03-23T14:47:35;24.60;79.10
60234;DHT22;49514;43.538;-5.708;2024-03-23T14:50:01;24.80;79.50
60234;DHT22;49514;43.538;-5.708;2024-03-23T14:52:29;24.70;77.80
60234;DHT22;49514;43.538;-5.708;2024-03-23T14:54:56;24.40;78.40
60234;DHT22;49514;43.538;-5.708;2024-03-23T14:57:23;24.70;76.60
60234;DHT22;49514;43.538;-5.708;2024-03-23T14:59:49;24.80;79.00
60234;DHT22;49514;43.538;-5.708;2024-03-23T15:02:16;25.40;76.90
60234;DHT22;49514;43.538;-5.708;2024-03-23T15:04:45;26.00;76.50
60234;DHT22;49514;43.538;-5.708;2024-03-23T15:07:11;26.50;75.30
60234;DHT22;49514;43.538;-5.708;2024-03-23T15:09:38;27.30;74.20
60234;DHT22;49514;43.538;-5.708;2024-03-23T15:12:05;27.50;74.20
60234;DHT22;49514;43.538;-5.708;2024-03-23T15:14:33;27.20;70.90
60234;DHT22;49514;43.538;-5.708;2024-03-23T15:17:01;27.20;72.00
60234;DHT22;49514;43.538;-5.708;2024-03-23T15:19:31;27.10;71.90
60234;DHT22;49514;43.538;-5.708;2024-03-23T15:21:58;26.80;70.40
60234;DHT22;49514;43.538;-5.708;2024-03-23T15:24:25;26.20;71.40
60234;DHT22;49514;43.538;-5.708;2024-03-23T15:26:52;24.70;73.10
60234;DHT22;49514;43.538;-5.708;2024-03-23T15:29:21;24.90;74.50
60234;DHT22;49514;43.538;-5.708;2024-03-23T15:31:49;24.30;74.70
60234;DHT22;49514;43.538;-5.708;2024-03-23T15:34:21;24.10;75.60
60234;DHT22;49514;43.538;-5.708;2024-03-23T15:36:49;23.90;77.20
60234;DHT22;49514;43.538;-5.708;2024-03-23T15:39:18;23.40;77.50
60234;DHT22;49514;43.538;-5.708;2024-03-23T15:41:46;23.30;78.00
60234;DHT22;49514;43.538;-5.708;2024-03-23T15:44:13;22.60;80.00
60234;DHT22;49514;43.538;-5.708;2024-03-23T15:46:40;22.40;81.70
60234;DHT22;49514;43.538;-5.708;2024-03-23T15:49:07;22.30;82.10
60234;DHT22;49514;43.538;-5.708;2024-03-23T15:51:33;22.60;81.50
60234;DHT22;49514;43.538;-5.708;2024-03-23T15:54:03;22.50;83.80
60234;DHT22;49514;43.538;-5.708;2024-03-23T15:56:30;22.30;82.20
60234;DHT22;49514;43.538;-5.708;2024-03-23T15:58:57;22.10;90.10
60234;DHT22;49514;43.538;-5.708;2024-03-23T16:01:32;21.90;90.00
60234;DHT22;49514;43.538;-5.708;2024-03-23T16:04:02;21.70;90.70
60234;DHT22;49514;43.538;-5.708;2024-03-23T16:06:29;21.30;91.00
60234;DHT22;49514;43.538;-5.708;2024-03-23T16:08:56;20.90;87.70
60234;DHT22;49514;43.538;-5.708;2024-03-23T16:11:22;20.70;89.00
60234;DHT22;49514;43.538;-5.708;2024-03-23T16:13:49;20.60;90.20
60234;DHT22;49514;43.538;-5.708;2024-03-23T16:16:16;20.60;90.40